Time;durP1;ratioP1;P1;durP2;ratioP2;P2;SDS_P1;SDS_P2;PMS_P1;PMS_P2;Temp;Humidity;BMP_temperature;BMP_pressure;BME280_temperature;BME280_humidity;BME280_pressure;Samples;Min_cycle;Max_cycle;Signal;HPM_P1;HPM_P2
2022/09/08 00:00:36;;;;;;;39.50;31.42;;;17.20;99.90;;;;;;4792593;29;20404;-80
2022/09/08 00:03:05;;;;;;;37.55;30.92;;;17.20;99.90;;;;;;4792538;29;20058;-80
2022/09/08 00:05:34;;;;;;;37.72;31.67;;;17.20;99.90;;;;;;4792544;29;20047;-79
2022/09/08 00:07:59;;;;;;;36.53;29.15;;;17.20;99.90;;;;;;4792537;29;20050;-80
2022/09/08 00:10:26;;;;;;;37.72;30.83;;;17.10;99.90;;;;;;4808845;29;20050;-80
2022/09/08 00:12:53;;;;;;;34.30;27.60;;;17.20;99.90;;;;;;4792463;29;20054;-80
2022/09/08 00:15:20;;;;;;;30.95;26.35;;;17.20;99.90;;;;;;4808865;29;20046;-80
2022/09/08 00:17:46;;;;;;;32.92;27.40;;;17.10;99.90;;;;;;4792277;29;20055;-80
2022/09/08 00:20:13;;;;;;;35.78;27.35;;;17.10;99.90;;;;;;4792282;29;20549;-80
2022/09/08 00:22:38;;;;;;;33.58;26.75;;;17.10;99.90;;;;;;4792235;29;20404;-80
2022/09/08 00:25:04;;;;;;;32.45;27.33;;;17.10;99.90;;;;;;4792345;29;20042;-80
2022/09/08 00:27:30;;;;;;;28.48;25.13;;;17.10;99.90;;;;;;4792536;29;20075;-80
2022/09/08 00:29:56;;;;;;;33.58;25.83;;;17.10;99.90;;;;;;4792093;29;20043;-80
2022/09/08 00:32:22;;;;;;;26.63;23.08;;;17.10;99.90;;;;;;4792160;29;20111;-80
2022/09/08 00:34:48;;;;;;;32.05;26.77;;;17.10;99.90;;;;;;4792377;29;20061;-80
2022/09/08 00:37:14;;;;;;;31.88;26.20;;;17.10;99.90;;;;;;4791302;29;20444;-80
2022/09/08 00:39:40;;;;;;;30.02;26.13;;;17.20;99.90;;;;;;4792103;29;20562;-80
2022/09/08 00:42:06;;;;;;;30.98;25.80;;;17.20;99.90;;;;;;4791831;29;20134;-80
2022/09/08 00:44:49;;;;;;;34.95;28.08;;;17.10;99.90;;;;;;4791881;29;20051;-80
2022/09/08 00:47:29;;;;;;;35.03;27.85;;;17.20;99.90;;;;;;4792136;29;20090;-80
2022/09/08 00:50:03;;;;;;;36.03;29.88;;;17.10;99.90;;;;;;4808241;29;20492;-80
2022/09/08 00:52:46;;;;;;;39.47;30.58;;;17.10;99.90;;;;;;4791894;29;20086;-80
2022/09/08 00:55:13;;;;;;;40.72;31.20;;;17.10;99.90;;;;;;4791763;29;20072;-80
2022/09/08 00:57:40;;;;;;;38.95;31.23;;;17.10;99.90;;;;;;4791287;29;20586;-80
2022/09/08 01:00:10;;;;;;;39.08;29.70;;;17.10;99.90;;;;;;4791878;29;20479;-80
2022/09/08 01:02:36;;;;;;;44.33;33.90;;;17.10;99.90;;;;;;4791742;29;20050;-80
2022/09/08 01:05:08;;;;;;;38.25;31.38;;;17.10;99.90;;;;;;4791813;29;20055;-80
2022/09/08 01:13:37;;;;;;;35.90;27.92;;;17.10;99.90;;;;;;4791378;29;20059;-80
2022/09/08 01:16:03;;;;;;;37.10;28.33;;;17.10;99.90;;;;;;4791663;29;20054;-80
2022/09/08 01:18:29;;;;;;;36.83;28.95;;;17.10;99.90;;;;;;4807508;29;20086;-80
2022/09/08 01:21:46;;;;;;;32.35;28.35;;;17.10;99.90;;;;;;4807726;29;20046;-80
2022/09/08 01:24:32;;;;;;;36.40;27.92;;;17.10;99.90;;;;;;4768478;29;20059;-80
2022/09/08 01:27:09;;;;;;;34.10;29.05;;;17.10;99.90;;;;;;4781653;29;20067;-81
2022/09/08 01:29:37;;;;;;;31.38;27.20;;;17.10;99.90;;;;;;4791256;29;20053;-80
2022/09/08 01:32:04;;;;;;;34.55;28.65;;;17.00;99.90;;;;;;4791109;29;20059;-80
2022/09/08 01:34:40;;;;;;;30.75;26.25;;;17.00;99.90;;;;;;4791129;29;20499;-80
2022/09/08 01:37:09;;;;;;;33.55;27.75;;;17.00;99.90;;;;;;4791643;29;20491;-80
2022/09/08 01:39:35;;;;;;;34.38;29.60;;;17.00;99.90;;;;;;4807245;29;20043;-80
2022/09/08 01:42:01;;;;;;;35.42;28.60;;;17.00;99.90;;;;;;4790956;29;20484;-80
2022/09/08 01:44:29;;;;;;;38.83;29.42;;;17.10;99.90;;;;;;4790926;29;20047;-80
2022/09/08 01:46:56;;;;;;;34.60;27.17;;;17.00;99.90;;;;;;4790841;29;20054;-80
2022/09/08 01:49:22;;;;;;;32.17;27.50;;;17.10;99.90;;;;;;4806995;29;20138;-80
2022/09/08 01:51:47;;;;;;;35.67;30.35;;;17.10;99.90;;;;;;4807131;29;20122;-80
2022/09/08 01:54:13;;;;;;;32.30;28.08;;;17.10;99.90;;;;;;4791155;29;20368;-80
2022/09/08 01:56:39;;;;;;;34.50;29.88;;;17.10;99.90;;;;;;4790887;29;20199;-80
2022/09/08 01:59:05;;;;;;;35.53;29.60;;;17.10;99.90;;;;;;4790821;29;20081;-79
2022/09/08 02:01:31;;;;;;;35.80;30.00;;;17.10;99.90;;;;;;4790688;29;20046;-80
2022/09/08 02:03:56;;;;;;;34.22;28.55;;;17.10;99.90;;;;;;4790499;29;20392;-80
2022/09/08 02:06:23;;;;;;;35.13;30.25;;;17.00;99.90;;;;;;4806902;29;20043;-80
2022/09/08 02:08:50;;;;;;;37.00;30.27;;;17.10;99.90;;;;;;4806876;29;20077;-80
2022/09/08 02:11:16;;;;;;;36.15;29.67;;;17.10;99.90;;;;;;4790609;29;20043;-80
2022/09/08 02:13:42;;;;;;;33.35;28.52;;;17.10;99.90;;;;;;4790379;29;20120;-80
2022/09/08 02:16:11;;;;;;;37.22;29.23;;;17.10;99.90;;;;;;4806625;29;20054;-80
2022/09/08 02:18:37;;;;;;;37.13;30.08;;;17.20;99.90;;;;;;4790279;29;20484;-80
2022/09/08 02:21:10;;;;;;;36.60;29.75;;;17.10;99.90;;;;;;4806643;29;20050;-80
2022/09/08 02:23:36;;;;;;;35.70;30.58;;;17.10;99.90;;;;;;4790243;29;20117;-80
2022/09/08 02:26:03;;;;;;;36.38;29.65;;;17.20;99.90;;;;;;4790554;29;20059;-80
2022/09/08 02:28:29;;;;;;;36.63;30.50;;;17.10;99.90;;;;;;4806520;29;20046;-80
2022/09/08 02:31:02;;;;;;;35.30;30.30;;;17.20;99.90;;;;;;4790209;29;20053;-80
2022/09/08 02:33:30;;;;;;;36.42;29.80;;;17.10;99.90;;;;;;4790305;29;20404;-80
2022/09/08 02:35:56;;;;;;;37.58;29.92;;;17.20;99.90;;;;;;4790480;29;20047;-79
2022/09/08 02:38:23;;;;;;;35.40;27.80;;;17.20;99.90;;;;;;4790332;29;20381;-80
2022/09/08 02:40:49;;;;;;;37.22;30.00;;;17.30;99.90;;;;;;4790144;29;20055;-80
2022/09/08 02:43:15;;;;;;;36.08;29.00;;;17.30;99.90;;;;;;4790096;29;20046;-80
2022/09/08 02:45:41;;;;;;;37.17;30.10;;;17.30;99.90;;;;;;4790044;29;20054;-80
2022/09/08 02:48:07;;;;;;;33.70;28.63;;;17.30;99.90;;;;;;4806442;29;20046;-80
2022/09/08 02:50:33;;;;;;;36.80;28.92;;;17.30;99.90;;;;;;4789952;29;20119;-80
2022/09/08 02:52:59;;;;;;;34.97;27.65;;;17.30;99.90;;;;;;4790361;29;20050;-80
2022/09/08 02:55:26;;;;;;;38.72;30.67;;;17.30;99.90;;;;;;4790075;29;20077;-80
2022/09/08 02:57:52;;;;;;;34.80;29.30;;;17.30;99.90;;;;;;4789793;29;20504;-80
2022/09/08 03:00:18;;;;;;;35.00;29.42;;;17.30;99.90;;;;;;4789985;29;20124;-80
2022/09/08 03:02:44;;;;;;;33.50;28.35;;;17.30;99.90;;;;;;4793740;29;20137;-80
2022/09/08 03:05:10;;;;;;;34.80;29.23;;;17.30;99.90;;;;;;4793656;29;20134;-80
2022/09/08 03:07:36;;;;;;;36.65;28.75;;;17.30;99.90;;;;;;4809928;29;20051;-80
2022/09/08 03:10:04;;;;;;;38.72;30.83;;;17.30;99.90;;;;;;4793666;29;20133;-80
2022/09/08 03:12:30;;;;;;;35.45;29.08;;;17.40;99.90;;;;;;4793408;29;20055;-80
2022/09/08 03:14:56;;;;;;;35.75;29.80;;;17.30;99.90;;;;;;4809858;29;20125;-79
2022/09/08 03:17:22;;;;;;;37.92;30.73;;;17.30;99.90;;;;;;4793456;29;20073;-78
2022/09/08 03:19:49;;;;;;;38.75;31.42;;;17.30;99.90;;;;;;4793615;29;20513;-79
2022/09/08 03:22:15;;;;;;;37.03;30.27;;;17.30;99.90;;;;;;4809511;29;20492;-79
2022/09/08 03:24:42;;;;;;;38.40;30.83;;;17.30;99.90;;;;;;4793449;29;20483;-79
2022/09/08 03:27:08;;;;;;;38.67;31.92;;;17.30;99.90;;;;;;4809420;29;20055;-79
2022/09/08 03:29:33;;;;;;;42.10;31.80;;;17.30;99.90;;;;;;4793205;29;20050;-79
2022/09/08 03:31:59;;;;;;;38.97;32.13;;;17.20;99.90;;;;;;4809533;29;20085;-79
2022/09/08 03:34:26;;;;;;;39.97;31.98;;;17.20;99.90;;;;;;4809496;29;20046;-79
2022/09/08 03:36:52;;;;;;;40.25;32.08;;;17.30;99.90;;;;;;4793357;29;20059;-80
2022/09/08 03:39:18;;;;;;;39.20;31.42;;;17.30;99.90;;;;;;4792983;29;20051;-80
2022/09/08 03:41:43;;;;;;;39.45;32.88;;;17.30;99.90;;;;;;4809384;29;20042;-79
2022/09/08 03:44:09;;;;;;;39.72;32.70;;;17.30;99.90;;;;;;4792917;29;20418;-79
2022/09/08 03:46:35;;;;;;;41.20;32.28;;;17.30;99.90;;;;;;4792952;29;20495;-79
2022/09/08 03:49:01;;;;;;;42.13;32.78;;;17.30;99.90;;;;;;4809292;29;20047;-80
2022/09/08 03:51:27;;;;;;;40.15;33.38;;;17.30;99.90;;;;;;4793158;29;20488;-79
2022/09/08 03:54:46;;;;;;;39.90;32.63;;;17.30;99.90;;;;;;4793072;29;20098;-80
2022/09/08 03:56:41;;;;;;;43.70;33.67;;;17.30;99.90;;;;;;4792410;29;20508;-79
2022/09/08 03:59:08;;;;;;;43.95;34.45;;;17.30;99.90;;;;;;4793216;29;20055;-79
2022/09/08 04:01:34;;;;;;;44.72;35.28;;;17.30;99.90;;;;;;4792992;29;20058;-79
2022/09/08 04:04:00;;;;;;;43.17;34.65;;;17.30;99.90;;;;;;4808878;29;20051;-79
2022/09/08 04:06:25;;;;;;;45.97;35.58;;;17.40;99.90;;;;;;4792789;29;20141;-79
2022/09/08 04:08:51;;;;;;;47.53;35.65;;;17.30;99.90;;;;;;4792764;29;20065;-79
2022/09/08 04:11:16;;;;;;;46.13;35.35;;;17.30;99.90;;;;;;4792968;29;20051;-79
2022/09/08 04:13:42;;;;;;;42.70;34.20;;;17.30;99.90;;;;;;4808839;29;20047;-80
2022/09/08 04:16:08;;;;;;;52.40;41.00;;;17.30;99.90;;;;;;4808735;29;20086;-79
2022/09/08 04:18:34;;;;;;;53.80;41.25;;;17.40;99.90;;;;;;4792518;29;20054;-79
2022/09/08 04:21:02;;;;;;;50.25;38.90;;;17.40;99.90;;;;;;4792580;29;20047;-79
2022/09/08 04:23:28;;;;;;;48.03;39.15;;;17.40;99.90;;;;;;4792289;29;20079;-79
2022/09/08 04:25:59;;;;;;;48.88;37.92;;;17.40;99.90;;;;;;4792550;29;20138;-80
2022/09/08 04:28:25;;;;;;;50.75;38.58;;;17.40;99.90;;;;;;4792405;29;20523;-79
2022/09/08 04:30:51;;;;;;;55.30;40.90;;;17.30;99.90;;;;;;4792296;29;20076;-80
2022/09/08 04:33:17;;;;;;;53.38;40.80;;;17.40;99.90;;;;;;4792187;29;20054;-80
2022/09/08 04:35:42;;;;;;;53.90;39.35;;;17.30;99.90;;;;;;4808393;29;20054;-80
2022/09/08 04:38:08;;;;;;;49.55;39.67;;;17.30;99.90;;;;;;4792078;29;20059;-80
2022/09/08 04:40:34;;;;;;;50.45;38.42;;;17.30;99.90;;;;;;4808428;29;20054;-79
2022/09/08 04:43:00;;;;;;;51.92;38.72;;;17.30;99.90;;;;;;4791900;29;20055;-79
2022/09/08 04:45:25;;;;;;;48.35;36.47;;;17.30;99.90;;;;;;4792094;29;20059;-80
2022/09/08 04:47:51;;;;;;;48.95;38.78;;;17.30;99.90;;;;;;4792238;29;20518;-79
2022/09/08 04:50:20;;;;;;;51.22;39.28;;;17.30;99.90;;;;;;4808167;29;20086;-78
2022/09/08 04:52:45;;;;;;;50.38;38.95;;;17.30;99.90;;;;;;4808070;29;20057;-79
2022/09/08 04:55:11;;;;;;;48.03;37.65;;;17.30;99.90;;;;;;4792026;29;20035;-80
2022/09/08 04:57:37;;;;;;;50.40;39.85;;;17.30;99.90;;;;;;4791629;29;20070;-80
2022/09/08 05:00:06;;;;;;;53.25;40.13;;;17.30;99.90;;;;;;4791863;29;20395;-80
2022/09/08 05:02:32;;;;;;;50.20;39.55;;;17.30;99.90;;;;;;4791898;29;20487;-80
2022/09/08 05:04:57;;;;;;;46.72;38.47;;;17.30;99.90;;;;;;4791513;29;20059;-80
2022/09/08 05:07:23;;;;;;;52.72;39.60;;;17.30;99.90;;;;;;4791349;29;20050;-80
2022/09/08 05:09:49;;;;;;;53.65;39.63;;;17.30;99.90;;;;;;4790760;29;20042;-80
2022/09/08 05:12:14;;;;;;;51.13;39.20;;;17.30;99.90;;;;;;4790086;29;20103;-80
2022/09/08 05:14:40;;;;;;;48.88;38.22;;;17.30;99.90;;;;;;4791179;29;20141;-80
2022/09/08 05:17:06;;;;;;;49.88;39.05;;;17.30;99.90;;;;;;4791271;29;20115;-79
2022/09/08 05:19:31;;;;;;;52.65;40.65;;;17.30;99.90;;;;;;4807672;29;20050;-80
2022/09/08 05:21:57;;;;;;;51.88;40.38;;;17.30;99.90;;;;;;4807623;29;20057;-79
2022/09/08 05:24:23;;;;;;;51.38;39.55;;;17.30;99.90;;;;;;4790702;29;20137;-80
2022/09/08 05:26:49;;;;;;;50.88;39.22;;;17.20;99.90;;;;;;4791050;29;20043;-80
2022/09/08 05:29:14;;;;;;;55.20;42.33;;;17.30;99.90;;;;;;4791005;29;20497;-80
2022/09/08 05:31:40;;;;;;;57.88;41.72;;;17.30;99.90;;;;;;4791065;29;20054;-80
2022/09/08 05:34:06;;;;;;;52.90;40.40;;;17.30;99.90;;;;;;4791326;29;20111;-80
2022/09/08 05:36:34;;;;;;;56.00;40.95;;;17.30;99.90;;;;;;4790949;29;20082;-80
2022/09/08 05:39:01;;;;;;;54.78;41.55;;;17.30;99.90;;;;;;4790905;29;20051;-79
2022/09/08 05:41:27;;;;;;;55.13;40.85;;;17.30;99.90;;;;;;4790819;29;20110;-80
2022/09/08 05:44:00;;;;;;;55.63;41.13;;;17.30;99.90;;;;;;4806843;29;20134;-80
2022/09/08 05:46:27;;;;;;;56.50;40.78;;;17.30;99.90;;;;;;4790971;29;20395;-79
2022/09/08 05:48:54;;;;;;;57.00;42.05;;;17.30;99.90;;;;;;4790770;29;20058;-79
2022/09/08 05:51:21;;;;;;;53.30;40.15;;;17.30;99.90;;;;;;4790872;29;20051;-80
2022/09/08 05:53:48;;;;;;;48.83;39.08;;;17.30;99.90;;;;;;4790529;29;20464;-80
2022/09/08 05:56:18;;;;;;;53.28;40.33;;;17.40;99.90;;;;;;4790581;29;20053;-80
2022/09/08 05:58:48;;;;;;;51.58;38.88;;;17.40;99.90;;;;;;4790528;29;20062;-80
2022/09/08 06:01:17;;;;;;;51.63;39.85;;;17.40;99.90;;;;;;4790857;29;20069;-79
2022/09/08 06:03:42;;;;;;;51.90;40.78;;;17.40;99.90;;;;;;4790587;29;20181;-81
2022/09/08 06:06:11;;;;;;;52.92;39.30;;;17.50;99.90;;;;;;4790519;29;20105;-80
2022/09/08 06:08:39;;;;;;;52.47;39.40;;;17.40;99.90;;;;;;4790438;29;20066;-80
2022/09/08 06:11:06;;;;;;;53.35;40.22;;;17.50;99.90;;;;;;4790402;29;20130;-80
2022/09/08 06:13:33;;;;;;;49.30;39.15;;;17.50;99.90;;;;;;4790695;29;20058;-80
2022/09/08 06:16:08;;;;;;;51.65;40.15;;;17.50;99.90;;;;;;4790661;29;20059;-80
2022/09/08 06:18:39;;;;;;;54.30;39.55;;;17.50;99.90;;;;;;4807059;29;20054;-79
2022/09/08 06:21:07;;;;;;;52.10;40.45;;;17.50;99.90;;;;;;4790614;29;20399;-80
2022/09/08 06:23:33;;;;;;;53.90;40.33;;;17.50;99.90;;;;;;4790194;29;20065;-79
2022/09/08 06:26:21;;;;;;;52.88;41.20;;;17.60;99.90;;;;;;4790540;29;20050;-80
2022/09/08 06:28:58;;;;;;;55.55;39.53;;;17.50;99.90;;;;;;4806483;29;20058;-79
2022/09/08 06:31:37;;;;;;;60.00;42.75;;;17.60;99.90;;;;;;4806636;29;20047;-80
2022/09/08 06:34:15;;;;;;;60.17;41.90;;;17.60;99.90;;;;;;4790320;29;20046;-80
2022/09/08 06:36:50;;;;;;;57.58;42.80;;;17.60;99.90;;;;;;4789430;29;20097;-80
2022/09/08 06:39:33;;;;;;;60.00;41.83;;;17.60;99.90;;;;;;4806516;29;20047;-80
2022/09/08 06:42:09;;;;;;;53.95;41.05;;;17.60;99.90;;;;;;4790024;29;20051;-80
2022/09/08 06:44:38;;;;;;;55.22;41.88;;;17.60;99.90;;;;;;4806210;29;20499;-79
2022/09/08 06:47:11;;;;;;;60.83;43.65;;;17.60;99.90;;;;;;4806490;29;20086;-79
2022/09/08 06:49:37;;;;;;;57.55;43.20;;;17.60;99.90;;;;;;4790084;29;20086;-79
2022/09/08 06:52:28;;;;;;;55.63;41.38;;;17.60;99.90;;;;;;4790231;29;20111;-79
2022/09/08 06:55:13;;;;;;;59.63;42.30;;;17.70;99.90;;;;;;4787118;29;20062;-78
2022/09/08 06:57:46;;;;;;;58.63;44.42;;;17.70;99.90;;;;;;4779625;30;20134;-79
2022/09/08 07:00:23;;;;;;;58.92;44.08;;;17.70;99.90;;;;;;4771905;30;20428;-78
2022/09/08 07:02:58;;;;;;;57.58;43.78;;;17.80;99.90;;;;;;4771893;30;20055;-78
2022/09/08 07:05:32;;;;;;;57.38;42.97;;;17.70;99.90;;;;;;4771938;30;20058;-78
2022/09/08 07:08:23;;;;;;;52.50;41.35;;;17.70;99.90;;;;;;4772023;30;20117;-79
2022/09/08 07:11:05;;;;;;;53.92;41.70;;;17.70;99.90;;;;;;4771856;30;20055;-79
2022/09/08 07:14:00;;;;;;;53.37;41.93;;;17.70;99.90;;;;;;4781504;29;20085;-78
2022/09/08 07:16:38;;;;;;;59.63;41.97;;;17.60;99.90;;;;;;4755213;30;20063;-78
2022/09/08 07:19:25;;;;;;;58.95;42.40;;;17.60;99.90;;;;;;4771966;30;20103;-78
2022/09/08 07:22:00;;;;;;;58.38;42.35;;;17.50;99.90;;;;;;4771942;30;20051;-79
2022/09/08 07:24:33;;;;;;;57.95;41.47;;;17.50;99.90;;;;;;4771526;30;20116;-79
2022/09/08 07:27:04;;;;;;;55.38;40.67;;;17.40;99.90;;;;;;4771952;30;20461;-79
2022/09/08 07:29:32;;;;;;;60.13;43.58;;;17.40;99.90;;;;;;4771685;30;20143;-80
2022/09/08 07:31:58;;;;;;;61.05;42.00;;;17.40;99.90;;;;;;4771707;30;20055;-79
2022/09/08 07:34:31;;;;;;;57.15;42.20;;;17.40;99.90;;;;;;4771319;30;20106;-79
2022/09/08 07:36:59;;;;;;;;;;;17.30;99.90;;;;;;4772025;30;20415;-79
2022/09/08 07:39:42;;;;;;;55.35;40.92;;;17.30;99.90;;;;;;4771583;30;19965;-79
2022/09/08 07:42:13;;;;;;;;;;;17.30;99.90;;;;;;4771949;30;20058;-79
2022/09/08 07:44:39;;;;;;;55.28;40.08;;;17.30;99.90;;;;;;4787493;30;20383;-79
2022/09/08 07:47:32;;;;;;;51.17;38.22;;;17.30;99.90;;;;;;4772564;30;20551;-80
2022/09/08 07:50:19;;;;;;;59.58;41.38;;;17.30;99.90;;;;;;4774752;30;20492;-80
2022/09/08 07:53:00;;;;;;;54.17;38.67;;;17.30;99.90;;;;;;4774758;30;20091;-80
2022/09/08 07:55:40;;;;;;;53.28;36.35;;;17.30;99.90;;;;;;4774801;30;20066;-79
2022/09/08 07:58:21;;;;;;;48.10;35.78;;;17.20;99.90;;;;;;4774455;30;20082;-80
2022/09/08 08:01:09;;;;;;;50.92;36.13;;;17.20;99.90;;;;;;4774686;30;20072;-80
2022/09/08 08:03:44;;;;;;;45.47;35.58;;;17.20;99.90;;;;;;4774420;30;20055;-80
2022/09/08 08:06:28;;;;;;;46.58;35.03;;;17.20;99.90;;;;;;4774520;30;20056;-80
2022/09/08 08:09:04;;;;;;;43.75;33.60;;;17.20;99.90;;;;;;4774231;30;20054;-79
2022/09/08 08:12:04;;;;;;;45.40;34.15;;;17.10;99.90;;;;;;4774689;30;20062;-80
2022/09/08 08:14:39;;;;;;;48.35;35.47;;;17.10;99.90;;;;;;4790693;30;20051;-79
2022/09/08 08:17:14;;;;;;;46.40;34.20;;;17.10;99.90;;;;;;4778687;29;20050;-80
2022/09/08 08:20:21;;;;;;;50.88;36.20;;;17.10;99.90;;;;;;4792060;29;20062;-80
2022/09/08 08:23:17;;;;;;;49.60;34.53;;;17.10;99.90;;;;;;4792305;29;20051;-81
2022/09/08 08:26:11;;;;;;;46.33;34.80;;;17.00;99.90;;;;;;4792160;29;20138;-81
2022/09/08 08:28:43;;;;;;;49.53;34.35;;;17.00;99.90;;;;;;4792234;29;20120;-81
2022/09/08 08:31:30;;;;;;;48.92;35.35;;;17.00;99.90;;;;;;4808359;29;20035;-81
2022/09/08 08:34:07;;;;;;;47.67;34.90;;;17.10;99.90;;;;;;4791940;29;20137;-81
2022/09/08 08:36:39;;;;;;;53.53;36.03;;;17.10;99.90;;;;;;4791853;29;20054;-81
2022/09/08 08:39:18;;;;;;;48.58;37.33;;;17.00;99.90;;;;;;4791586;29;20127;-80
2022/09/08 08:42:13;;;;;;;48.78;35.85;;;17.00;99.90;;;;;;4783432;29;20480;-81
2022/09/08 08:44:57;;;;;;;51.88;34.97;;;17.00;99.90;;;;;;4776104;30;20111;-82
2022/09/08 08:47:52;;;;;;;45.85;31.27;;;17.00;99.90;;;;;;4781619;29;20074;-80
2022/09/08 08:50:46;;;;;;;25.83;20.33;;;17.00;99.90;;;;;;4780273;29;20050;-80
2022/09/08 08:53:35;;;;;;;14.63;9.32;;;16.90;99.90;;;;;;4815256;29;20093;-80
2022/09/08 08:56:19;;;;;;;13.27;8.32;;;16.70;99.90;;;;;;4791350;29;20437;-81
2022/09/08 08:59:00;;;;;;;11.95;8.73;;;16.70;99.90;;;;;;4820957;29;20061;-81
2022/09/08 09:01:40;;;;;;;11.35;7.93;;;16.60;99.90;;;;;;4791813;29;20096;-81
2022/09/08 09:04:35;;;;;;;9.32;6.30;;;16.60;99.90;;;;;;4791360;29;20131;-81
2022/09/08 09:07:25;;;;;;;8.20;5.28;;;16.60;99.90;;;;;;4807471;29;20055;-81
2022/09/08 09:10:20;;;;;;;9.00;4.28;;;16.50;99.90;;;;;;4791627;29;20050;-81
2022/09/08 09:12:55;;;;;;;4.07;2.50;;;16.60;99.90;;;;;;4791294;29;20568;-82
2022/09/08 09:15:30;;;;;;;5.85;2.58;;;16.50;99.90;;;;;;4791065;29;20403;-81
2022/09/08 09:18:20;;;;;;;3.53;1.60;;;16.50;99.90;;;;;;4790965;29;20161;-81
2022/09/08 09:20:52;;;;;;;3.42;1.63;;;16.50;99.90;;;;;;4789246;29;20065;-81
2022/09/08 09:23:23;;;;;;;3.75;1.60;;;16.50;99.90;;;;;;4790789;29;20104;-81
2022/09/08 09:25:58;;;;;;;2.20;1.30;;;16.50;99.90;;;;;;4787875;29;20115;-81
2022/09/08 09:29:08;;;;;;;2.15;1.05;;;16.60;99.90;;;;;;4787423;29;20066;-81
2022/09/08 09:31:46;;;;;;;2.60;1.40;;;16.60;99.90;;;;;;4785302;29;20081;-81
2022/09/08 09:34:53;;;;;;;2.83;1.30;;;16.60;99.90;;;;;;4790985;29;20058;-81
2022/09/08 09:37:45;;;;;;;2.75;1.17;;;16.60;99.90;;;;;;4790591;29;20458;-81
2022/09/08 09:41:08;;;;;;;1.85;1.10;;;16.80;99.90;;;;;;4782728;29;20061;-81
2022/09/08 09:44:01;;;;;;;1.63;1.13;;;16.70;99.90;;;;;;4752679;30;20055;-80
2022/09/08 09:46:38;;;;;;;2.03;1.13;;;16.80;99.90;;;;;;4768930;30;20131;-81
2022/09/08 09:49:25;;;;;;;3.30;1.00;;;16.80;99.90;;;;;;4767960;30;20067;-81
2022/09/08 09:52:12;;;;;;;2.28;1.20;;;16.80;99.90;;;;;;4773017;30;20055;-81
2022/09/08 09:55:06;;;;;;;3.33;1.20;;;16.80;99.90;;;;;;4771270;30;20134;-81
2022/09/08 09:58:07;;;;;;;4.90;1.30;;;16.90;99.90;;;;;;4786656;30;20282;-80
2022/09/08 10:01:06;;;;;;;3.83;1.10;;;16.90;99.90;;;;;;4772418;30;20057;-80
2022/09/08 10:03:44;;;;;;;3.30;1.30;;;16.90;99.90;;;;;;4772596;30;20051;-80
2022/09/08 10:06:24;;;;;;;2.38;1.25;;;17.10;99.90;;;;;;4772605;30;20063;-80
2022/09/08 10:09:15;;;;;;;2.47;1.13;;;17.10;99.90;;;;;;4772206;30;20147;-80
2022/09/08 10:11:43;;;;;;;2.05;1.15;;;17.10;99.90;;;;;;4772589;30;20062;-80
2022/09/08 10:14:17;;;;;;;1.77;1.17;;;17.10;99.90;;;;;;4772629;30;20067;-81
2022/09/08 10:17:13;;;;;;;2.08;1.25;;;17.10;99.90;;;;;;4772086;29;20412;-80
2022/09/08 10:19:57;;;;;;;2.90;1.40;;;17.10;99.90;;;;;;4772352;30;20058;-81
2022/09/08 10:22:40;;;;;;;1.80;1.17;;;17.10;99.90;;;;;;4772529;30;20062;-80
2022/09/08 10:25:25;;;;;;;3.30;1.60;;;17.10;99.90;;;;;;4772501;30;20055;-83
2022/09/08 10:27:51;;;;;;;2.35;1.50;;;17.20;99.90;;;;;;4772306;30;20059;-82
2022/09/08 10:30:37;;;;;;;3.28;1.42;;;17.20;99.90;;;;;;4788849;30;20155;-81
2022/09/08 10:33:29;;;;;;;3.25;1.77;;;17.20;99.90;;;;;;4772297;30;20492;-81
2022/09/08 10:36:09;;;;;;;3.42;1.90;;;17.20;99.90;;;;;;4775516;30;20112;-80
2022/09/08 10:38:47;;;;;;;3.58;2.10;;;17.20;99.90;;;;;;4772327;30;20051;-80
2022/09/08 10:41:34;;;;;;;2.40;1.63;;;17.20;99.90;;;;;;4772088;30;20093;-80
2022/09/08 10:44:33;;;;;;;3.78;1.70;;;17.10;99.90;;;;;;4771971;30;20108;-79
2022/09/08 10:47:36;;;;;;;3.22;1.80;;;17.10;99.90;;;;;;4772406;30;20083;-79
2022/09/08 10:50:15;;;;;;;3.60;1.98;;;17.20;99.90;;;;;;4772002;30;20051;-79
2022/09/08 10:53:17;;;;;;;2.65;1.95;;;17.20;99.90;;;;;;4771788;30;20583;-80
2022/09/08 10:56:03;;;;;;;2.83;1.80;;;17.30;99.90;;;;;;4771756;30;20065;-80
2022/09/08 10:59:03;;;;;;;3.05;1.70;;;17.20;99.90;;;;;;4771801;30;20580;-79
2022/09/08 11:01:59;;;;;;;2.80;1.90;;;17.20;99.90;;;;;;4772186;30;20090;-79
2022/09/08 11:04:39;;;;;;;3.28;2.03;;;17.20;99.90;;;;;;4771815;30;20051;-80
2022/09/08 11:07:35;;;;;;;6.10;2.10;;;17.30;99.90;;;;;;4771774;30;20051;-79
2022/09/08 11:10:25;;;;;;;3.45;1.90;;;17.30;99.90;;;;;;4771903;30;20047;-79
2022/09/08 11:13:12;;;;;;;2.80;1.88;;;17.20;99.90;;;;;;4788037;30;20052;-80
2022/09/08 11:15:49;;;;;;;2.97;1.90;;;17.30;99.90;;;;;;4788205;30;20062;-79
2022/09/08 11:18:52;;;;;;;2.80;1.70;;;17.20;99.90;;;;;;4772133;30;20087;-80
2022/09/08 11:21:27;;;;;;;2.42;1.60;;;17.20;99.90;;;;;;4787876;29;20126;-80
2022/09/08 11:23:58;;;;;;;4.03;1.80;;;17.20;99.90;;;;;;4775158;30;20495;-81
2022/09/08 11:26:32;;;;;;;3.25;1.70;;;17.20;99.90;;;;;;4775305;30;20056;-81
2022/09/08 11:29:09;;;;;;;2.92;1.80;;;17.20;99.90;;;;;;4775257;30;20067;-80
2022/09/08 11:37:49;;;;;;;5.05;2.38;;;17.10;99.90;;;;;;5195195;24;20507;-95
2022/09/08 11:41:13;;;;;;;4.38;2.20;;;17.00;99.90;;;;;;5122120;24;20153;-95
2022/09/08 11:49:24;;;;;;;3.85;3.03;;;17.00;99.90;;;;;;4478578;24;20596;-93
2022/09/08 11:51:55;;;;;;;3.70;2.85;;;17.00;99.90;;;;;;4792770;29;20065;-90
2022/09/08 11:54:48;;;;;;;4.10;2.85;;;17.00;99.90;;;;;;4794861;29;20051;-94
2022/09/08 11:57:14;;;;;;;5.60;2.85;;;17.00;99.90;;;;;;4794415;29;20138;-96
2022/09/08 11:59:49;;;;;;;6.32;2.72;;;17.00;99.90;;;;;;4802317;29;20082;-94
2022/09/08 12:02:34;;;;;;;3.85;2.50;;;17.00;99.90;;;;;;4803962;29;20046;-95
2022/09/08 12:05:30;;;;;;;5.20;3.03;;;17.00;99.90;;;;;;4797487;29;20509;-92
2022/09/08 12:08:19;;;;;;;4.60;2.67;;;17.00;99.90;;;;;;4799536;29;20066;-89
2022/09/08 12:13:53;;;;;;;4.20;2.67;;;17.10;99.90;;;;;;5323268;24;20119;-96
2022/09/08 12:16:44;;;;;;;4.88;2.85;;;17.10;99.90;;;;;;4801336;29;20059;-92
2022/09/08 12:20:00;;;;;;;4.97;2.85;;;17.10;99.90;;;;;;4796396;29;20104;-93
2022/09/08 12:22:52;;;;;;;4.32;2.40;;;17.10;99.90;;;;;;4785321;29;20111;-94
2022/09/08 12:25:35;;;;;;;6.03;2.70;;;17.10;99.90;;;;;;4800386;29;20055;-96
2022/09/08 12:28:24;;;;;;;6.82;2.60;;;17.20;99.90;;;;;;4798814;29;20078;-86
2022/09/08 12:31:11;;;;;;;3.72;2.03;;;17.20;99.90;;;;;;4808354;29;20046;-81
2022/09/08 12:33:55;;;;;;;3.75;2.10;;;17.10;99.90;;;;;;4807139;29;20051;-80
2022/09/08 12:36:32;;;;;;;3.20;1.90;;;17.20;99.90;;;;;;4792050;29;20055;-81
2022/09/08 12:39:28;;;;;;;4.13;2.30;;;17.20;99.90;;;;;;4791951;29;20475;-81
2022/09/08 12:42:13;;;;;;;4.72;2.00;;;17.20;99.90;;;;;;4791739;29;20059;-80
2022/09/08 12:45:05;;;;;;;2.78;1.80;;;17.20;99.90;;;;;;4791745;29;20071;-85
2022/09/08 12:47:50;;;;;;;3.72;1.85;;;17.20;99.90;;;;;;4801699;29;20129;-81
2022/09/08 12:50:45;;;;;;;3.97;1.92;;;17.20;99.90;;;;;;4791501;29;20063;-82
2022/09/08 12:53:59;;;;;;;4.43;2.33;;;17.20;99.90;;;;;;4791613;29;20062;-81
2022/09/08 12:56:37;;;;;;;5.55;2.10;;;17.20;99.90;;;;;;4791558;29;20537;-81
2022/09/08 12:59:20;;;;;;;3.63;2.40;;;17.30;99.90;;;;;;4791309;29;20654;-82
2022/09/08 13:01:51;;;;;;;;;;;17.30;99.90;;;;;;4795357;29;20031;-94
2022/09/08 13:04:47;;;;;;;3.92;2.20;;;17.30;99.90;;;;;;4797428;29;19932;-93
2022/09/08 13:07:16;;;;;;;4.88;2.20;;;17.30;99.90;;;;;;4791684;29;20054;-80
2022/09/08 13:10:05;;;;;;;3.30;2.03;;;17.30;99.90;;;;;;4807514;29;20403;-81
2022/09/08 13:12:59;;;;;;;3.63;2.30;;;17.30;99.90;;;;;;4790937;29;20134;-83
2022/09/08 13:15:29;;;;;;;5.57;2.05;;;17.30;99.90;;;;;;4807706;29;20120;-82
2022/09/08 13:18:03;;;;;;;3.72;1.80;;;17.30;99.90;;;;;;4807639;29;20061;-80
2022/09/08 13:20:49;;;;;;;2.58;1.58;;;17.30;99.90;;;;;;4791184;29;20051;-81
2022/09/08 13:23:36;;;;;;;5.05;1.60;;;17.30;99.90;;;;;;4791309;29;20042;-81
2022/09/08 13:26:34;;;;;;;5.72;1.95;;;17.20;99.90;;;;;;4791048;29;20086;-81
2022/09/08 13:29:25;;;;;;;4.10;2.38;;;17.30;99.90;;;;;;4791135;29;20055;-80
2022/09/08 13:32:20;;;;;;;6.43;2.40;;;17.30;99.90;;;;;;4791039;29;20051;-81
2022/09/08 13:35:01;;;;;;;5.10;2.50;;;17.30;99.90;;;;;;4791100;29;20116;-81
2022/09/08 13:38:06;;;;;;;4.30;2.40;;;17.30;99.90;;;;;;4791309;29;20055;-81